createdAt,value
2022-08-19T00:04:42.261Z,99906.97
2022-08-19T00:09:44.774Z,99914.75
2022-08-19T00:14:48.643Z,99916.91
2022-08-19T00:19:51.129Z,99929.03
2022-08-19T00:24:53.592Z,99940.72
2022-08-19T00:29:59.814Z,99940.22
2022-08-19T00:35:05.476Z,99931.97
2022-08-19T00:40:09.301Z,99940.03
2022-08-19T00:45:15.825Z,99933.31
2022-08-19T00:50:21.566Z,99919.88
2022-08-19T00:55:28.983Z,99911.66
2022-08-19T01:00:33.608Z,99900.88
2022-08-19T01:05:37.145Z,99885.94
2022-08-19T01:10:46.647Z,99885.72
2022-08-19T01:15:56.928Z,99875.00
2022-08-19T01:21:04.456Z,99855.84
2022-08-19T01:26:08.260Z,99851.09
2022-08-19T01:31:26.414Z,99836.13
2022-08-19T01:36:33.080Z,99816.50
2022-08-19T01:41:38.674Z,99804.97
2022-08-19T01:46:42.051Z,99801.03
2022-08-19T01:51:44.619Z,99800.53
2022-08-19T01:56:48.829Z,99795.22
2022-08-19T02:01:51.405Z,99804.38
2022-08-19T02:06:53.928Z,99825.53
2022-08-19T02:11:57.989Z,99821.63
2022-08-19T02:17:00.461Z,99814.59
2022-08-19T02:22:03.115Z,99803.25
2022-08-19T02:27:07.248Z,99794.94
2022-08-19T02:32:09.950Z,99785.66
2022-08-19T02:37:32.612Z,99787.09
2022-08-19T02:42:39.217Z,99780.25
2022-08-19T02:47:41.771Z,99797.34
2022-08-19T02:52:44.251Z,99790.06
2022-08-19T02:57:48.293Z,99775.94
2022-08-19T03:02:50.755Z,99800.28
2022-08-19T03:07:53.259Z,99807.38
2022-08-19T03:12:57.119Z,99820.75
2022-08-19T03:17:59.819Z,99844.50
2022-08-19T03:23:02.892Z,99868.09
2022-08-19T03:28:07.409Z,99880.00
2022-08-19T03:33:11.302Z,99901.22
2022-08-19T03:38:20.733Z,99925.25
2022-08-19T03:43:24.597Z,99923.63
2022-08-19T03:48:27.084Z,99909.88
2022-08-19T03:53:31.683Z,99911.13
2022-08-19T03:58:35.539Z,99914.75
2022-08-19T04:03:37.978Z,99913.47
2022-08-19T04:08:41.495Z,99918.81
2022-08-19T04:13:45.662Z,99923.31
2022-08-19T04:18:49.701Z,99915.72
2022-08-19T04:23:53.496Z,99918.03
2022-08-19T04:29:00.310Z,99908.91
2022-08-19T04:34:04.901Z,99895.97
2022-08-19T04:39:10.650Z,99887.19
2022-08-19T04:44:15.169Z,99890.53
2022-08-19T04:49:19.407Z,99894.25
2022-08-19T04:54:37.157Z,99899.19
2022-08-19T04:59:42.972Z,99894.84
2022-08-19T05:04:45.434Z,99897.16
2022-08-19T05:09:58.966Z,99905.13
2022-08-19T05:15:06.914Z,99900.06
2022-08-19T05:20:28.616Z,99898.25
2022-08-19T05:25:31.260Z,99907.50
2022-08-19T05:30:46.729Z,99912.34
2022-08-19T05:35:53.555Z,99924.75
2022-08-19T05:40:56.039Z,99928.47
2022-08-19T05:46:00.285Z,99933.56
2022-08-19T05:51:07.141Z,99930.91
2022-08-19T05:56:11.538Z,99927.91
2022-08-19T06:01:17.953Z,99926.13
2022-08-19T06:06:21.407Z,99923.16
2022-08-19T06:11:25.706Z,99934.22
2022-08-19T06:16:32.542Z,99930.31
2022-08-19T06:21:38.127Z,99937.75
2022-08-19T06:31:56.193Z,99983.91
2022-08-19T06:37:02.012Z,100003.59
2022-08-19T06:42:10.327Z,100030.22
2022-08-19T06:47:23.487Z,100016.03
2022-08-19T06:52:27.840Z,100039.34
2022-08-19T06:57:33.566Z,100042.84
2022-08-19T07:02:38.517Z,100061.84
2022-08-19T07:07:44.096Z,100065.44
2022-08-19T07:12:51.264Z,100062.25
2022-08-19T07:17:55.221Z,100069.56
2022-08-19T07:22:58.241Z,100069.81
2022-08-19T07:28:01.615Z,100067.25
2022-08-19T07:33:05.647Z,100062.75
2022-08-19T07:38:08.412Z,100067.22
2022-08-19T07:43:14.231Z,100070.00
2022-08-19T07:48:21.787Z,100077.34
2022-08-19T07:53:24.259Z,100083.16
2022-08-19T07:58:26.845Z,100071.06
2022-08-19T08:03:45.129Z,100079.38
2022-08-19T08:09:05.175Z,100080.97
2022-08-19T08:14:29.510Z,100094.66
2022-08-19T08:19:35.158Z,100095.09
2022-08-19T08:24:37.989Z,100105.63
2022-08-19T08:29:43.060Z,100109.09
2022-08-19T08:34:47.386Z,100116.66
2022-08-19T08:39:55.372Z,100109.41
2022-08-19T08:45:01.596Z,100120.25
2022-08-19T08:50:09.646Z,100127.25
2022-08-19T08:55:16.282Z,100128.66
2022-08-19T09:00:25.058Z,100131.06
2022-08-19T09:05:42.116Z,100138.94
2022-08-19T09:10:55.475Z,100138.94
2022-08-19T09:16:02.503Z,100142.28
2022-08-19T09:21:07.010Z,100160.13
2022-08-19T09:26:11.716Z,100143.41
2022-08-19T09:31:15.974Z,100158.66
2022-08-19T09:36:34.844Z,100147.03
2022-08-19T09:41:38.039Z,100128.19
2022-08-19T09:46:40.557Z,100142.59
2022-08-19T09:51:46.880Z,100138.28
2022-08-19T09:56:53.970Z,100135.59
2022-08-19T10:01:56.955Z,100145.03
2022-08-19T10:07:07.914Z,100156.50
2022-08-19T10:12:12.769Z,100151.97
2022-08-19T10:17:23.123Z,100160.00
2022-08-19T10:22:31.672Z,100174.09
2022-08-19T10:27:34.224Z,100166.00
2022-08-19T10:32:38.378Z,100161.88
2022-08-19T10:37:57.667Z,100151.81
2022-08-19T10:43:04.787Z,100156.84
2022-08-19T10:48:07.316Z,100152.78
2022-08-19T10:53:20.974Z,100151.13
2022-08-19T10:58:27.264Z,100150.78
2022-08-19T11:03:30.787Z,100151.25
2022-08-19T11:08:35.789Z,100164.44
2022-08-19T11:13:41.768Z,100153.63
2022-08-19T11:18:48.125Z,100159.69
2022-08-19T11:23:54.914Z,100155.03
2022-08-19T11:28:58.689Z,100155.72
2022-08-19T11:34:06.433Z,100170.06
2022-08-19T11:39:12.532Z,100173.66
2022-08-19T11:44:16.177Z,100186.91
2022-08-19T11:49:22.043Z,100175.56
2022-08-19T11:54:26.383Z,100173.72
2022-08-19T11:59:30.302Z,100166.84
2022-08-19T12:04:32.825Z,100169.44
2022-08-19T12:09:37.131Z,100157.47
2022-08-19T12:14:45.677Z,100148.88
2022-08-19T12:19:48.189Z,100143.75
2022-08-19T12:24:54.276Z,100135.81
2022-08-19T12:29:57.014Z,100128.28
2022-08-19T12:34:59.538Z,100122.59
2022-08-19T12:40:04.398Z,100119.66
2022-08-19T12:45:07.780Z,100108.56
2022-08-19T12:50:14.093Z,100124.72
2022-08-19T12:55:19.541Z,100126.72
2022-08-19T13:00:23.870Z,100131.34
2022-08-19T13:05:31.165Z,100116.53
2022-08-19T13:10:40.073Z,100116.38
2022-08-19T13:15:49.265Z,100105.47
2022-08-19T13:20:52.738Z,100117.44
2022-08-19T13:26:00.974Z,100129.56
2022-08-19T13:31:21.254Z,100139.28
2022-08-19T13:36:23.765Z,100137.66
2022-08-19T13:41:27.941Z,100147.69
2022-08-19T13:46:31.542Z,100161.75
2022-08-19T13:51:34.221Z,100167.75
2022-08-19T13:56:42.768Z,100158.16
2022-08-19T14:01:45.264Z,100161.81
2022-08-19T14:06:49.640Z,100174.47
2022-08-19T14:11:53.475Z,100176.38
2022-08-19T14:16:55.903Z,100176.34
2022-08-19T14:21:59.059Z,100163.16
2022-08-19T14:27:04.248Z,100164.09
2022-08-19T14:32:08.089Z,100167.13
2022-08-19T14:37:15.356Z,100177.97
2022-08-19T14:42:19.182Z,100173.03
2022-08-19T14:47:21.677Z,100181.66
2022-08-19T14:52:26.061Z,100156.47
2022-08-19T14:57:29.879Z,100151.66
2022-08-19T15:02:34.039Z,100145.00
2022-08-19T15:07:37.677Z,100146.84
2022-08-19T15:12:43.626Z,100145.81
2022-08-19T15:17:47.375Z,100150.50
2022-08-19T15:22:50.010Z,100151.84
2022-08-19T15:27:54.138Z,100151.00
2022-08-19T15:32:58.467Z,100145.00
2022-08-19T15:38:01.002Z,100147.94
2022-08-19T15:43:04.827Z,100148.63
2022-08-19T15:48:07.237Z,100140.31
2022-08-19T15:53:11.747Z,100135.63
2022-08-19T15:58:33.670Z,100153.28
2022-08-19T16:03:53.958Z,100160.06
2022-08-19T16:08:58.654Z,100145.16
2022-08-19T16:14:03.673Z,100149.44
2022-08-19T16:19:11.861Z,100147.72
2022-08-19T16:24:16.810Z,100137.22
2022-08-19T16:29:33.808Z,100127.16
2022-08-19T16:34:42.402Z,100129.31
2022-08-19T16:39:45.729Z,100124.16
2022-08-19T16:44:49.778Z,100130.03
2022-08-19T16:49:55.212Z,100129.56
2022-08-19T16:54:58.131Z,100134.66
2022-08-19T17:00:05.122Z,100134.84
2022-08-19T17:05:09.405Z,100137.91
2022-08-19T17:10:11.982Z,100140.38
2022-08-19T17:15:15.797Z,100127.88
2022-08-19T17:20:18.498Z,100123.75
2022-08-19T17:25:21.023Z,100124.03
2022-08-19T17:30:26.167Z,100130.69
2022-08-19T17:35:28.724Z,100123.84
2022-08-19T17:40:31.256Z,100112.00
2022-08-19T17:45:36.419Z,100124.88
2022-08-19T17:50:40.394Z,100136.59
2022-08-19T17:55:42.903Z,100138.53
2022-08-19T18:00:54.441Z,100145.56
2022-08-19T18:05:58.605Z,100147.00
2022-08-19T18:11:01.823Z,100145.78
2022-08-19T18:16:06.951Z,100137.50
2022-08-19T18:21:10.351Z,100131.69
2022-08-19T18:26:12.974Z,100132.81
2022-08-19T18:31:17.143Z,100133.84
2022-08-19T18:36:37.381Z,100136.53
2022-08-19T18:42:00.679Z,100152.28
2022-08-19T18:47:22.430Z,100154.38
2022-08-19T18:52:27.079Z,100159.78
2022-08-19T18:57:29.580Z,100170.09
2022-08-19T19:02:38.886Z,100183.13
2022-08-19T19:07:41.737Z,100200.78
2022-08-19T19:12:45.450Z,100190.75
2022-08-19T19:17:50.059Z,100194.19
2022-08-19T19:22:52.516Z,100192.34
2022-08-19T19:27:58.556Z,100197.34
2022-08-19T19:33:03.181Z,100207.56
2022-08-19T19:38:08.445Z,100211.16
2022-08-19T19:43:11.019Z,100212.41
2022-08-19T19:48:16.758Z,100207.50
2022-08-19T19:53:19.241Z,100204.28
2022-08-19T19:58:22.755Z,100228.41
2022-08-19T20:03:32.918Z,100219.06
2022-08-19T20:08:53.013Z,100213.91
2022-08-19T20:13:55.679Z,100232.50
2022-08-19T20:19:01.218Z,100228.44
2022-08-19T20:24:09.145Z,100232.09
2022-08-19T20:29:38.062Z,100235.84
2022-08-19T20:34:38.079Z,100240.16
2022-08-19T20:39:40.797Z,100240.31
2022-08-19T20:44:43.335Z,100235.75
2022-08-19T20:49:47.272Z,100229.56
2022-08-19T20:54:49.683Z,100228.09
2022-08-19T20:59:52.226Z,100221.75
2022-08-19T21:04:59.021Z,100214.56
2022-08-19T21:10:02.872Z,100223.88
2022-08-19T21:15:09.849Z,100229.75
2022-08-19T21:20:13.766Z,100228.91
2022-08-19T21:25:17.028Z,100230.47
2022-08-19T21:30:19.611Z,100245.63
2022-08-19T21:35:24.191Z,100242.75
2022-08-19T21:40:27.201Z,100250.84
2022-08-19T21:45:30.142Z,100241.25
2022-08-19T21:50:34.027Z,100234.88
2022-08-19T21:55:36.521Z,100249.72
2022-08-19T22:00:40.242Z,100247.78
2022-08-19T22:05:44.434Z,100262.22
2022-08-19T22:10:46.940Z,100253.72
2022-08-19T22:15:51.874Z,100240.47
2022-08-19T22:20:56.663Z,100231.91
2022-08-19T22:25:59.381Z,100224.19
2022-08-19T22:31:02.430Z,100218.53
2022-08-19T22:36:08.498Z,100224.41
2022-08-19T22:41:11.535Z,100227.31
2022-08-19T22:46:17.350Z,100232.25
2022-08-19T22:51:39.447Z,100218.84
2022-08-19T22:56:43.352Z,100223.94
2022-08-19T23:01:46.271Z,100239.03
2022-08-19T23:06:52.857Z,100246.69
2022-08-19T23:11:55.661Z,100236.09
2022-08-19T23:16:59.185Z,100243.22
2022-08-19T23:22:05.092Z,100245.91
2022-08-19T23:27:30.280Z,100263.94
2022-08-19T23:32:36.038Z,100270.66
2022-08-19T23:37:39.813Z,100248.84
2022-08-19T23:42:44.351Z,100242.19
2022-08-19T23:47:47.485Z,100245.97
2022-08-19T23:52:54.372Z,100244.84
2022-08-19T23:57:57.495Z,100255.19
